JST789 YBSU-YMML
Flight info
| Callsign | JST789 |
|---|---|
| Flight time | 2h 10m |
| Altitude | 36000 |
| Route | DCT SU Q35 DORSU H119 ML DCT |
| Aircraft | A320/M-SDE3FGHIRWY/LB1 |
Departure
| Time | 2026-04-24 10:03 |
|---|---|
| Airport | Sunshine Coast Airport (YBSU) |
Arrival
| Time | 2026-04-24 12:14 |
|---|---|
| Airport | Melbourne Airport (YMML) |
| Time | Latitude | Longitude | Altitude | Speed | Heading |
|---|---|---|---|---|---|
| 2026-04-24 09:22 | -26.60480 | 153.08913 | 22 ft | 0 kts | 233° |
| 2026-04-24 09:50 | -26.60479 | 153.08915 | 21 ft | 1 kts | 233° |
| 2026-04-24 09:50 | -26.60473 | 153.08924 | -5 ft | 3 kts | 237° |
| 2026-04-24 09:51 | -26.60463 | 153.08944 | 25 ft | 3 kts | 251° |
| 2026-04-24 09:51 | -26.60459 | 153.08964 | 21 ft | 3 kts | 282° |
| 2026-04-24 09:51 | -26.60465 | 153.08979 | 24 ft | 1 kts | 321° |
| 2026-04-24 09:51 | -26.60466 | 153.08981 | 24 ft | 0 kts | 323° |
| 2026-04-24 09:55 | -26.60457 | 153.08973 | 24 ft | 3 kts | 323° |
| 2026-04-24 09:55 | -26.60437 | 153.08956 | 22 ft | 5 kts | 323° |
| 2026-04-24 09:55 | -26.60406 | 153.08929 | 21 ft | 7 kts | 323° |
| 2026-04-24 09:55 | -26.60361 | 153.08912 | 22 ft | 8 kts | 14° |
| 2026-04-24 09:56 | -26.60310 | 153.08927 | 21 ft | 9 kts | 340° |
| 2026-04-24 09:56 | -26.60258 | 153.08884 | 21 ft | 10 kts | 322° |
| 2026-04-24 09:56 | -26.60193 | 153.08828 | 21 ft | 13 kts | 322° |
| 2026-04-24 09:56 | -26.60119 | 153.08765 | 22 ft | 14 kts | 322° |
| 2026-04-24 09:57 | -26.60038 | 153.08694 | 23 ft | 16 kts | 322° |
| 2026-04-24 09:57 | -26.59948 | 153.08618 | 21 ft | 17 kts | 323° |
| 2026-04-24 09:57 | -26.59852 | 153.08535 | 21 ft | 18 kts | 322° |
| 2026-04-24 09:57 | -26.59745 | 153.08446 | 24 ft | 20 kts | 322° |
| 2026-04-24 09:58 | -26.59632 | 153.08351 | 21 ft | 21 kts | 323° |
| 2026-04-24 09:58 | -26.59513 | 153.08250 | 22 ft | 20 kts | 322° |
| 2026-04-24 09:58 | -26.59434 | 153.08193 | 21 ft | 11 kts | 351° |
| 2026-04-24 09:58 | -26.59376 | 153.08247 | 22 ft | 12 kts | 54° |
| 2026-04-24 09:59 | -26.59305 | 153.08300 | 23 ft | 13 kts | 355° |
| 2026-04-24 09:59 | -26.59226 | 153.08240 | 22 ft | 15 kts | 322° |
| 2026-04-24 09:59 | -26.59137 | 153.08163 | 20 ft | 17 kts | 322° |
| 2026-04-24 09:59 | -26.59037 | 153.08077 | 23 ft | 20 kts | 322° |
| 2026-04-24 10:00 | -26.58913 | 153.07973 | 25 ft | 24 kts | 323° |
| 2026-04-24 10:00 | -26.58779 | 153.07859 | 24 ft | 25 kts | 323° |
| 2026-04-24 10:00 | -26.58641 | 153.07742 | 22 ft | 19 kts | 322° |
| 2026-04-24 10:00 | -26.58561 | 153.07672 | 23 ft | 15 kts | 322° |
| 2026-04-24 10:01 | -26.58477 | 153.07599 | 22 ft | 16 kts | 316° |
| 2026-04-24 10:01 | -26.58427 | 153.07486 | 20 ft | 12 kts | 294° |
| 2026-04-24 10:01 | -26.58376 | 153.07436 | 22 ft | 8 kts | 346° |
| 2026-04-24 10:01 | -26.58341 | 153.07476 | 23 ft | 8 kts | 95° |
| 2026-04-24 10:02 | -26.58372 | 153.07511 | 22 ft | 2 kts | 144° |
| 2026-04-24 10:02 | -26.58378 | 153.07516 | 21 ft | 2 kts | 143° |
| 2026-04-24 10:02 | -26.58398 | 153.07533 | 21 ft | 5 kts | 143° |
| 2026-04-24 10:02 | -26.58443 | 153.07571 | 22 ft | 20 kts | 142° |
| 2026-04-24 10:03 | -26.58743 | 153.07826 | 25 ft | 85 kts | 142° |
| 2026-04-24 10:03 | -26.59358 | 153.08349 | 22 ft | 135 kts | 143° |
| 2026-04-24 10:03 | -26.60208 | 153.09083 | 147 ft | 164 kts | 143° |
| 2026-04-24 10:03 | -26.61090 | 153.09853 | 840 ft | 159 kts | 147° |
| 2026-04-24 10:04 | -26.61953 | 153.10606 | 1472 ft | 155 kts | 145° |
| 2026-04-24 10:04 | -26.62803 | 153.11327 | 2097 ft | 151 kts | 145° |
| 2026-04-24 10:04 | -26.63633 | 153.12028 | 2662 ft | 148 kts | 145° |
| 2026-04-24 10:04 | -26.64423 | 153.12759 | 3199 ft | 148 kts | 133° |
| 2026-04-24 10:05 | -26.65103 | 153.13660 | 3553 ft | 159 kts | 132° |
| 2026-04-24 10:05 | -26.65883 | 153.14654 | 3754 ft | 180 kts | 132° |
| 2026-04-24 10:05 | -26.66773 | 153.15780 | 3920 ft | 207 kts | 132° |
| 2026-04-24 10:05 | -26.67773 | 153.17058 | 4247 ft | 230 kts | 132° |
| 2026-04-24 10:06 | -26.68855 | 153.18455 | 4860 ft | 241 kts | 132° |
| 2026-04-24 10:06 | -26.71097 | 153.21317 | 6481 ft | 246 kts | 138° |
| 2026-04-24 10:06 | -26.72578 | 153.22291 | 7203 ft | 253 kts | 162° |
| 2026-04-24 10:07 | -26.74325 | 153.22673 | 7924 ft | 258 kts | 167° |
| 2026-04-24 10:07 | -26.76106 | 153.23007 | 8685 ft | 261 kts | 168° |
| 2026-04-24 10:07 | -26.77905 | 153.23341 | 9433 ft | 264 kts | 168° |
| 2026-04-24 10:07 | -26.79730 | 153.23685 | 10152 ft | 268 kts | 168° |
| 2026-04-24 10:08 | -26.81624 | 153.24046 | 10544 ft | 284 kts | 168° |
| 2026-04-24 10:08 | -26.83646 | 153.24432 | 10685 ft | 306 kts | 168° |
| 2026-04-24 10:08 | -26.85823 | 153.24848 | 10853 ft | 326 kts | 168° |
| 2026-04-24 10:08 | -26.88089 | 153.25278 | 11328 ft | 333 kts | 168° |
| 2026-04-24 10:09 | -26.90387 | 153.25711 | 11944 ft | 337 kts | 168° |
| 2026-04-24 10:09 | -26.92715 | 153.26150 | 12563 ft | 340 kts | 168° |
| 2026-04-24 10:09 | -26.95059 | 153.26594 | 13197 ft | 343 kts | 168° |
| 2026-04-24 10:09 | -26.97428 | 153.27045 | 13800 ft | 347 kts | 168° |
| 2026-04-24 10:10 | -26.99785 | 153.27495 | 14367 ft | 350 kts | 168° |
| 2026-04-24 10:10 | -27.02195 | 153.27954 | 14910 ft | 353 kts | 168° |
| 2026-04-24 10:10 | -27.04627 | 153.28421 | 15421 ft | 356 kts | 168° |
| 2026-04-24 10:10 | -27.07076 | 153.28891 | 15967 ft | 358 kts | 168° |
| 2026-04-24 10:11 | -27.09547 | 153.29362 | 16474 ft | 362 kts | 169° |
| 2026-04-24 10:11 | -27.12041 | 153.29834 | 17015 ft | 364 kts | 169° |
| 2026-04-24 10:11 | -27.14555 | 153.30310 | 17533 ft | 368 kts | 169° |
| 2026-04-24 10:11 | -27.17095 | 153.30795 | 18058 ft | 372 kts | 168° |
| 2026-04-24 10:12 | -27.19653 | 153.31286 | 18618 ft | 375 kts | 168° |
| 2026-04-24 10:12 | -27.22238 | 153.31783 | 19093 ft | 378 kts | 169° |
| 2026-04-24 10:12 | -27.24842 | 153.32281 | 19618 ft | 381 kts | 168° |
| 2026-04-24 10:12 | -27.27465 | 153.32784 | 20100 ft | 384 kts | 169° |
| 2026-04-24 10:13 | -27.30116 | 153.33293 | 20627 ft | 387 kts | 169° |
| 2026-04-24 10:13 | -27.32788 | 153.33778 | 21071 ft | 391 kts | 172° |
| 2026-04-24 10:13 | -27.35492 | 153.33819 | 21534 ft | 396 kts | 183° |
| 2026-04-24 10:13 | -27.38221 | 153.33259 | 21955 ft | 402 kts | 194° |
| 2026-04-24 10:14 | -27.40841 | 153.32093 | 22381 ft | 408 kts | 205° |
| 2026-04-24 10:14 | -27.43313 | 153.30471 | 22751 ft | 413 kts | 208° |
| 2026-04-24 10:14 | -27.45789 | 153.28797 | 23158 ft | 416 kts | 208° |
| 2026-04-24 10:14 | -27.48281 | 153.27113 | 23561 ft | 419 kts | 208° |
| 2026-04-24 10:15 | -27.50792 | 153.25419 | 23955 ft | 422 kts | 208° |
| 2026-04-24 10:15 | -27.53316 | 153.23714 | 24292 ft | 424 kts | 208° |
| 2026-04-24 10:15 | -27.55855 | 153.21997 | 24628 ft | 426 kts | 208° |
| 2026-04-24 10:15 | -27.58406 | 153.20270 | 24955 ft | 428 kts | 208° |
| 2026-04-24 10:16 | -27.60966 | 153.18537 | 25280 ft | 430 kts | 208° |
| 2026-04-24 10:16 | -27.63538 | 153.16795 | 25596 ft | 432 kts | 208° |
| 2026-04-24 10:16 | -27.66122 | 153.15040 | 25905 ft | 434 kts | 208° |
| 2026-04-24 10:16 | -27.68715 | 153.13282 | 26217 ft | 436 kts | 208° |
| 2026-04-24 10:17 | -27.71324 | 153.11512 | 26517 ft | 439 kts | 209° |
| 2026-04-24 10:17 | -27.73953 | 153.09726 | 26806 ft | 441 kts | 209° |
| 2026-04-24 10:17 | -27.76594 | 153.07933 | 27108 ft | 444 kts | 209° |
| 2026-04-24 10:17 | -27.79250 | 153.06130 | 27411 ft | 446 kts | 209° |
| 2026-04-24 10:18 | -27.81875 | 153.04339 | 27746 ft | 447 kts | 210° |
| 2026-04-24 10:18 | -27.84484 | 153.02436 | 28195 ft | 446 kts | 212° |
| 2026-04-24 10:18 | -27.87033 | 153.00438 | 28639 ft | 445 kts | 214° |
| 2026-04-24 10:18 | -27.89537 | 152.98389 | 29079 ft | 444 kts | 215° |
| 2026-04-24 10:19 | -27.92026 | 152.96321 | 29520 ft | 443 kts | 215° |
| 2026-04-24 10:19 | -27.94516 | 152.94263 | 29956 ft | 442 kts | 215° |
| 2026-04-24 10:19 | -27.97012 | 152.92225 | 30394 ft | 442 kts | 214° |
| 2026-04-24 10:19 | -27.99510 | 152.90210 | 30775 ft | 441 kts | 214° |
| 2026-04-24 10:20 | -28.02007 | 152.88210 | 31200 ft | 438 kts | 214° |
| 2026-04-24 10:20 | -28.04492 | 152.86229 | 31663 ft | 435 kts | 214° |
| 2026-04-24 10:20 | -28.06957 | 152.84264 | 32126 ft | 432 kts | 215° |
| 2026-04-24 10:20 | -28.09408 | 152.82306 | 32560 ft | 430 kts | 215° |
| 2026-04-24 10:21 | -28.11842 | 152.80359 | 33049 ft | 426 kts | 215° |
| 2026-04-24 10:21 | -28.14252 | 152.78426 | 33542 ft | 423 kts | 215° |
| 2026-04-24 10:21 | -28.16646 | 152.76502 | 33988 ft | 421 kts | 215° |
| 2026-04-24 10:21 | -28.19025 | 152.74588 | 34421 ft | 418 kts | 215° |
| 2026-04-24 10:22 | -28.21393 | 152.72684 | 34769 ft | 416 kts | 215° |
| 2026-04-24 10:22 | -28.23751 | 152.70787 | 35078 ft | 415 kts | 215° |
| 2026-04-24 10:22 | -28.26105 | 152.68893 | 35371 ft | 414 kts | 215° |
| 2026-04-24 10:22 | -28.28448 | 152.67007 | 35652 ft | 413 kts | 215° |
| 2026-04-24 10:23 | -28.30787 | 152.65121 | 35926 ft | 412 kts | 215° |
| 2026-04-24 10:23 | -28.33088 | 152.63265 | 36229 ft | 410 kts | 215° |
| 2026-04-24 10:23 | -28.35408 | 152.61394 | 36360 ft | 408 kts | 215° |
| 2026-04-24 10:24 | -28.40086 | 152.57613 | 36404 ft | 417 kts | 215° |
| 2026-04-24 10:24 | -28.44846 | 152.53760 | 36406 ft | 421 kts | 215° |
| 2026-04-24 10:25 | -28.49625 | 152.49891 | 36410 ft | 423 kts | 215° |
| 2026-04-24 10:25 | -28.54436 | 152.45999 | 36422 ft | 425 kts | 215° |
| 2026-04-24 10:26 | -28.59256 | 152.42094 | 36414 ft | 425 kts | 215° |
| 2026-04-24 10:26 | -28.64078 | 152.38177 | 36415 ft | 426 kts | 215° |
| 2026-04-24 10:27 | -28.68897 | 152.34247 | 36418 ft | 426 kts | 215° |
| 2026-04-24 10:27 | -28.73714 | 152.30323 | 36425 ft | 426 kts | 215° |
| 2026-04-24 10:28 | -28.78537 | 152.26399 | 36427 ft | 426 kts | 214° |
| 2026-04-24 10:28 | -28.83332 | 152.22499 | 36433 ft | 426 kts | 214° |
| 2026-04-24 10:29 | -28.88145 | 152.18564 | 36428 ft | 426 kts | 214° |
| 2026-04-24 10:29 | -28.92964 | 152.14627 | 36430 ft | 426 kts | 214° |
| 2026-04-24 10:30 | -28.97777 | 152.10687 | 36429 ft | 426 kts | 214° |
| 2026-04-24 10:30 | -29.02592 | 152.06743 | 36430 ft | 426 kts | 214° |
| 2026-04-24 10:31 | -29.07415 | 152.02783 | 36433 ft | 427 kts | 214° |
| 2026-04-24 10:31 | -29.12237 | 151.98811 | 36433 ft | 427 kts | 214° |
| 2026-04-24 10:32 | -29.17062 | 151.94837 | 36436 ft | 427 kts | 214° |
| 2026-04-24 10:32 | -29.21891 | 151.90863 | 36425 ft | 427 kts | 214° |
| 2026-04-24 10:33 | -29.26716 | 151.86895 | 36440 ft | 426 kts | 214° |
| 2026-04-24 10:33 | -29.31528 | 151.82926 | 36441 ft | 426 kts | 214° |
| 2026-04-24 10:34 | -29.36332 | 151.78949 | 36436 ft | 426 kts | 214° |
| 2026-04-24 10:34 | -29.40328 | 151.75638 | 36437 ft | 426 kts | 214° |
| 2026-04-24 10:35 | -29.45125 | 151.71659 | 36450 ft | 425 kts | 213° |
| 2026-04-24 10:35 | -29.49918 | 151.67687 | 36445 ft | 425 kts | 213° |
| 2026-04-24 10:36 | -29.54924 | 151.64146 | 36445 ft | 422 kts | 207° |
| 2026-04-24 10:36 | -29.60034 | 151.60839 | 36438 ft | 421 kts | 207° |
| 2026-04-24 10:37 | -29.65136 | 151.57527 | 36446 ft | 421 kts | 206° |
| 2026-04-24 10:37 | -29.70225 | 151.54219 | 36453 ft | 420 kts | 206° |
| 2026-04-24 10:38 | -29.75304 | 151.50905 | 36450 ft | 419 kts | 206° |
| 2026-04-24 10:38 | -29.80380 | 151.47598 | 36456 ft | 419 kts | 206° |
| 2026-04-24 10:39 | -29.85428 | 151.44311 | 36445 ft | 419 kts | 206° |
| 2026-04-24 10:39 | -29.90492 | 151.41000 | 36454 ft | 418 kts | 206° |
| 2026-04-24 10:40 | -29.95553 | 151.37688 | 36459 ft | 418 kts | 206° |
| 2026-04-24 10:40 | -30.00612 | 151.34385 | 36456 ft | 418 kts | 206° |
| 2026-04-24 10:41 | -30.05658 | 151.31073 | 36452 ft | 417 kts | 206° |
| 2026-04-24 10:41 | -30.10694 | 151.27764 | 36459 ft | 416 kts | 206° |
| 2026-04-24 10:42 | -30.15726 | 151.24461 | 36465 ft | 415 kts | 206° |
| 2026-04-24 10:42 | -30.20744 | 151.21155 | 36459 ft | 415 kts | 206° |
| 2026-04-24 10:43 | -30.25762 | 151.17850 | 36458 ft | 415 kts | 206° |
| 2026-04-24 10:43 | -30.30779 | 151.14543 | 36453 ft | 415 kts | 206° |
| 2026-04-24 10:44 | -30.35796 | 151.11239 | 36453 ft | 415 kts | 206° |
| 2026-04-24 10:44 | -30.40812 | 151.07929 | 36449 ft | 415 kts | 206° |
| 2026-04-24 10:45 | -30.45819 | 151.04586 | 36454 ft | 417 kts | 209° |
| 2026-04-24 10:45 | -30.50307 | 151.00256 | 36443 ft | 420 kts | 216° |
| 2026-04-24 10:46 | -30.54136 | 150.96376 | 36450 ft | 420 kts | 216° |
| 2026-04-24 10:46 | -30.57600 | 150.92865 | 36456 ft | 420 kts | 216° |
| 2026-04-24 10:47 | -30.58528 | 150.91925 | 36456 ft | 420 kts | 216° |
| 2026-04-24 10:47 | -30.62925 | 150.87461 | 36459 ft | 420 kts | 216° |
| 2026-04-24 10:48 | -30.67325 | 150.82987 | 36456 ft | 420 kts | 216° |
| 2026-04-24 10:48 | -30.71724 | 150.78519 | 36447 ft | 420 kts | 216° |
| 2026-04-24 10:49 | -30.76127 | 150.74039 | 36432 ft | 421 kts | 216° |
| 2026-04-24 10:49 | -30.80527 | 150.69551 | 36446 ft | 420 kts | 216° |
| 2026-04-24 10:50 | -30.84919 | 150.65064 | 36449 ft | 420 kts | 216° |
| 2026-04-24 10:50 | -30.89302 | 150.60566 | 36446 ft | 420 kts | 216° |
| 2026-04-24 10:51 | -30.93704 | 150.56088 | 36444 ft | 420 kts | 216° |
| 2026-04-24 10:51 | -30.98069 | 150.51620 | 36453 ft | 420 kts | 217° |
| 2026-04-24 10:52 | -31.02474 | 150.47076 | 36453 ft | 420 kts | 217° |
| 2026-04-24 10:52 | -31.06856 | 150.42573 | 36444 ft | 419 kts | 216° |
| 2026-04-24 10:53 | -31.11230 | 150.38075 | 36447 ft | 418 kts | 216° |
| 2026-04-24 10:53 | -31.15568 | 150.33606 | 36456 ft | 418 kts | 216° |
| 2026-04-24 10:54 | -31.19927 | 150.29109 | 36450 ft | 418 kts | 216° |
| 2026-04-24 10:54 | -31.24277 | 150.24613 | 36450 ft | 417 kts | 216° |
| 2026-04-24 10:55 | -31.28630 | 150.20118 | 36457 ft | 417 kts | 216° |
| 2026-04-24 10:55 | -31.32977 | 150.15613 | 36444 ft | 417 kts | 216° |
| 2026-04-24 10:56 | -31.37314 | 150.11117 | 36455 ft | 416 kts | 216° |
| 2026-04-24 10:56 | -31.41636 | 150.06631 | 36468 ft | 415 kts | 216° |
| 2026-04-24 10:57 | -31.45951 | 150.02143 | 36467 ft | 415 kts | 216° |
| 2026-04-24 10:57 | -31.50262 | 149.97658 | 36465 ft | 415 kts | 216° |
| 2026-04-24 10:58 | -31.54576 | 149.93165 | 36469 ft | 415 kts | 216° |
| 2026-04-24 10:58 | -31.58888 | 149.88666 | 36467 ft | 415 kts | 216° |
| 2026-04-24 10:59 | -31.63201 | 149.84169 | 36470 ft | 414 kts | 216° |
| 2026-04-24 10:59 | -31.67468 | 149.79707 | 36458 ft | 413 kts | 216° |
| 2026-04-24 11:00 | -31.71754 | 149.75210 | 36470 ft | 413 kts | 216° |
| 2026-04-24 11:00 | -31.76044 | 149.70706 | 36468 ft | 413 kts | 216° |
| 2026-04-24 11:01 | -31.80325 | 149.66206 | 36477 ft | 413 kts | 216° |
| 2026-04-24 11:01 | -31.84606 | 149.61699 | 36472 ft | 413 kts | 216° |
| 2026-04-24 11:02 | -31.88889 | 149.57197 | 36463 ft | 413 kts | 216° |
| 2026-04-24 11:02 | -31.93172 | 149.52700 | 36474 ft | 412 kts | 216° |
| 2026-04-24 11:03 | -31.97446 | 149.48182 | 36473 ft | 412 kts | 216° |
| 2026-04-24 11:03 | -32.01713 | 149.43668 | 36478 ft | 412 kts | 216° |
| 2026-04-24 11:04 | -32.05982 | 149.39151 | 36479 ft | 412 kts | 216° |
| 2026-04-24 11:04 | -32.10246 | 149.34637 | 36478 ft | 412 kts | 216° |
| 2026-04-24 11:05 | -32.14509 | 149.30117 | 36475 ft | 412 kts | 216° |
| 2026-04-24 11:05 | -32.18769 | 149.25589 | 36468 ft | 412 kts | 217° |
| 2026-04-24 11:06 | -32.23024 | 149.21055 | 36466 ft | 412 kts | 217° |
| 2026-04-24 11:06 | -32.27281 | 149.16508 | 36467 ft | 413 kts | 217° |
| 2026-04-24 11:07 | -32.33652 | 149.09707 | 36471 ft | 413 kts | 217° |
| 2026-04-24 11:07 | -32.37919 | 149.05148 | 36473 ft | 413 kts | 217° |
| 2026-04-24 11:08 | -32.42180 | 149.00586 | 36444 ft | 413 kts | 217° |
| 2026-04-24 11:08 | -32.46446 | 148.96016 | 36450 ft | 413 kts | 217° |
| 2026-04-24 11:09 | -32.50716 | 148.91436 | 36457 ft | 414 kts | 217° |
| 2026-04-24 11:09 | -32.54982 | 148.86848 | 36463 ft | 414 kts | 217° |
| 2026-04-24 11:10 | -32.59250 | 148.82256 | 36462 ft | 414 kts | 217° |
| 2026-04-24 11:10 | -32.63521 | 148.77653 | 36462 ft | 415 kts | 218° |
| 2026-04-24 11:11 | -32.67792 | 148.73035 | 36455 ft | 415 kts | 218° |
| 2026-04-24 11:11 | -32.72075 | 148.68414 | 36463 ft | 416 kts | 218° |
| 2026-04-24 11:12 | -32.76330 | 148.63823 | 36454 ft | 416 kts | 218° |
| 2026-04-24 11:12 | -32.80604 | 148.59186 | 36461 ft | 416 kts | 218° |
| 2026-04-24 11:13 | -32.84884 | 148.54535 | 36462 ft | 417 kts | 218° |
| 2026-04-24 11:13 | -32.89170 | 148.49884 | 36468 ft | 417 kts | 218° |
| 2026-04-24 11:14 | -32.93457 | 148.45219 | 36454 ft | 417 kts | 218° |
| 2026-04-24 11:14 | -32.97739 | 148.40545 | 36455 ft | 418 kts | 219° |
| 2026-04-24 11:15 | -33.02031 | 148.35859 | 36456 ft | 419 kts | 219° |
| 2026-04-24 11:15 | -33.06330 | 148.31168 | 36461 ft | 419 kts | 219° |
| 2026-04-24 11:16 | -33.10636 | 148.26467 | 36455 ft | 420 kts | 219° |
| 2026-04-24 11:16 | -33.14235 | 148.22588 | 36451 ft | 419 kts | 217° |
| 2026-04-24 11:17 | -33.19592 | 148.17570 | 36448 ft | 418 kts | 214° |
| 2026-04-24 11:17 | -33.23483 | 148.14129 | 36448 ft | 419 kts | 214° |
| 2026-04-24 11:18 | -33.28134 | 148.09927 | 36457 ft | 420 kts | 214° |
| 2026-04-24 11:18 | -33.32750 | 148.05646 | 36456 ft | 420 kts | 215° |
| 2026-04-24 11:19 | -33.37368 | 148.01344 | 36452 ft | 421 kts | 215° |
| 2026-04-24 11:19 | -33.41991 | 147.97049 | 36455 ft | 421 kts | 215° |
| 2026-04-24 11:20 | -33.46622 | 147.92751 | 36454 ft | 421 kts | 215° |
| 2026-04-24 11:20 | -33.51253 | 147.88443 | 36443 ft | 422 kts | 216° |
| 2026-04-24 11:21 | -33.55892 | 147.84120 | 36447 ft | 422 kts | 216° |
| 2026-04-24 11:21 | -33.60540 | 147.79787 | 36449 ft | 423 kts | 216° |
| 2026-04-24 11:22 | -33.65179 | 147.75449 | 36452 ft | 423 kts | 216° |
| 2026-04-24 11:22 | -33.69828 | 147.71099 | 36450 ft | 424 kts | 216° |
| 2026-04-24 11:23 | -33.74481 | 147.66744 | 36450 ft | 424 kts | 216° |
| 2026-04-24 11:23 | -33.79137 | 147.62386 | 36448 ft | 424 kts | 216° |
| 2026-04-24 11:24 | -33.83791 | 147.58011 | 36444 ft | 424 kts | 216° |
| 2026-04-24 11:24 | -33.88438 | 147.53623 | 36449 ft | 425 kts | 216° |
| 2026-04-24 11:25 | -33.93089 | 147.49234 | 36460 ft | 425 kts | 216° |
| 2026-04-24 11:25 | -33.97716 | 147.44880 | 36459 ft | 425 kts | 216° |
| 2026-04-24 11:26 | -34.02368 | 147.40484 | 36457 ft | 425 kts | 216° |
| 2026-04-24 11:26 | -34.07026 | 147.36080 | 36452 ft | 426 kts | 216° |
| 2026-04-24 11:27 | -34.11685 | 147.31667 | 36455 ft | 426 kts | 216° |
| 2026-04-24 11:27 | -34.16343 | 147.27241 | 36451 ft | 426 kts | 217° |
| 2026-04-24 11:28 | -34.21006 | 147.22809 | 36465 ft | 427 kts | 217° |
| 2026-04-24 11:28 | -34.25676 | 147.18364 | 36471 ft | 427 kts | 217° |
| 2026-04-24 11:29 | -34.30349 | 147.13912 | 36467 ft | 428 kts | 217° |
| 2026-04-24 11:29 | -34.35020 | 147.09457 | 36463 ft | 428 kts | 217° |
| 2026-04-24 11:30 | -34.39688 | 147.04985 | 36471 ft | 428 kts | 217° |
| 2026-04-24 11:30 | -34.44359 | 147.00507 | 36472 ft | 428 kts | 217° |
| 2026-04-24 11:31 | -34.49026 | 146.96031 | 36472 ft | 428 kts | 217° |
| 2026-04-24 11:31 | -34.53692 | 146.91556 | 36469 ft | 428 kts | 217° |
| 2026-04-24 11:32 | -34.58363 | 146.87074 | 36466 ft | 428 kts | 217° |
| 2026-04-24 11:32 | -34.63031 | 146.82575 | 36457 ft | 428 kts | 217° |
| 2026-04-24 11:33 | -34.67702 | 146.78078 | 36467 ft | 428 kts | 217° |
| 2026-04-24 11:33 | -34.72369 | 146.73576 | 36468 ft | 429 kts | 218° |
| 2026-04-24 11:34 | -34.77007 | 146.69080 | 36467 ft | 429 kts | 218° |
| 2026-04-24 11:34 | -34.81680 | 146.64553 | 36469 ft | 429 kts | 218° |
| 2026-04-24 11:35 | -34.86356 | 146.60019 | 36470 ft | 430 kts | 218° |
| 2026-04-24 11:35 | -34.91039 | 146.55478 | 36470 ft | 430 kts | 218° |
| 2026-04-24 11:36 | -34.95720 | 146.50934 | 36467 ft | 430 kts | 218° |
| 2026-04-24 11:36 | -35.00398 | 146.46375 | 36467 ft | 430 kts | 218° |
| 2026-04-24 11:37 | -35.05076 | 146.41810 | 36468 ft | 431 kts | 218° |
| 2026-04-24 11:37 | -35.09752 | 146.37230 | 36468 ft | 431 kts | 218° |
| 2026-04-24 11:38 | -35.14434 | 146.32651 | 36470 ft | 431 kts | 218° |
| 2026-04-24 11:38 | -35.19121 | 146.28067 | 36463 ft | 431 kts | 218° |
| 2026-04-24 11:39 | -35.23799 | 146.23467 | 36467 ft | 432 kts | 218° |
| 2026-04-24 11:39 | -35.28477 | 146.18856 | 36467 ft | 432 kts | 218° |
| 2026-04-24 11:40 | -35.33162 | 146.14245 | 36469 ft | 432 kts | 218° |
| 2026-04-24 11:40 | -35.37850 | 146.09625 | 36466 ft | 433 kts | 219° |
| 2026-04-24 11:41 | -35.42535 | 146.04988 | 36469 ft | 433 kts | 219° |
| 2026-04-24 11:41 | -35.47225 | 146.00345 | 36466 ft | 433 kts | 219° |
| 2026-04-24 11:42 | -35.51915 | 145.95702 | 36468 ft | 433 kts | 219° |
| 2026-04-24 11:42 | -35.56572 | 145.91080 | 36469 ft | 433 kts | 219° |
| 2026-04-24 11:43 | -35.61250 | 145.86439 | 36452 ft | 424 kts | 218° |
| 2026-04-24 11:43 | -35.65761 | 145.82027 | 36447 ft | 408 kts | 219° |
| 2026-04-24 11:44 | -35.70082 | 145.77759 | 36439 ft | 385 kts | 219° |
| 2026-04-24 11:44 | -35.72125 | 145.75731 | 36446 ft | 373 kts | 219° |
| 2026-04-24 11:44 | -35.74147 | 145.73679 | 36449 ft | 380 kts | 220° |
| 2026-04-24 11:45 | -35.78289 | 145.69443 | 36449 ft | 393 kts | 220° |
| 2026-04-24 11:45 | -35.82586 | 145.65096 | 36448 ft | 407 kts | 220° |
| 2026-04-24 11:46 | -35.87045 | 145.60623 | 36448 ft | 420 kts | 219° |
| 2026-04-24 11:46 | -35.91644 | 145.56012 | 36448 ft | 431 kts | 219° |
| 2026-04-24 11:47 | -35.96317 | 145.51322 | 36450 ft | 434 kts | 220° |
| 2026-04-24 11:47 | -36.01002 | 145.46605 | 36445 ft | 434 kts | 220° |
| 2026-04-24 11:48 | -36.05687 | 145.41875 | 36447 ft | 435 kts | 220° |
| 2026-04-24 11:48 | -36.10366 | 145.37142 | 36448 ft | 435 kts | 220° |
| 2026-04-24 11:49 | -36.15050 | 145.32402 | 36449 ft | 435 kts | 220° |
| 2026-04-24 11:49 | -36.19746 | 145.27658 | 35830 ft | 439 kts | 220° |
| 2026-04-24 11:50 | -36.22122 | 145.25253 | 34966 ft | 442 kts | 220° |
| 2026-04-24 11:50 | -36.24502 | 145.22835 | 34115 ft | 444 kts | 220° |
| 2026-04-24 11:50 | -36.26894 | 145.20399 | 33236 ft | 446 kts | 220° |
| 2026-04-24 11:50 | -36.29282 | 145.17959 | 32331 ft | 444 kts | 220° |
| 2026-04-24 11:51 | -36.31659 | 145.15534 | 31470 ft | 441 kts | 220° |
| 2026-04-24 11:51 | -36.34028 | 145.13121 | 30564 ft | 442 kts | 220° |
| 2026-04-24 11:51 | -36.36402 | 145.10708 | 29640 ft | 438 kts | 220° |
| 2026-04-24 11:51 | -36.38683 | 145.08383 | 29214 ft | 425 kts | 220° |
| 2026-04-24 11:52 | -36.40956 | 145.06060 | 28620 ft | 422 kts | 220° |
| 2026-04-24 11:52 | -36.43239 | 145.03722 | 28034 ft | 418 kts | 220° |
| 2026-04-24 11:52 | -36.45447 | 145.01456 | 27455 ft | 416 kts | 220° |
| 2026-04-24 11:52 | -36.47670 | 144.99172 | 26883 ft | 416 kts | 220° |
| 2026-04-24 11:53 | -36.49906 | 144.96877 | 26307 ft | 416 kts | 220° |
| 2026-04-24 11:53 | -36.52135 | 144.94593 | 25733 ft | 417 kts | 220° |
| 2026-04-24 11:53 | -36.54394 | 144.92274 | 25146 ft | 422 kts | 220° |
| 2026-04-24 11:53 | -36.56654 | 144.89954 | 24567 ft | 420 kts | 220° |
| 2026-04-24 11:54 | -36.58905 | 144.87644 | 23990 ft | 418 kts | 220° |
| 2026-04-24 11:54 | -36.61141 | 144.85347 | 23353 ft | 414 kts | 220° |
| 2026-04-24 11:54 | -36.63352 | 144.83072 | 22829 ft | 410 kts | 220° |
| 2026-04-24 11:54 | -36.65538 | 144.80817 | 22285 ft | 407 kts | 220° |
| 2026-04-24 11:55 | -36.67708 | 144.78576 | 21768 ft | 404 kts | 220° |
| 2026-04-24 11:55 | -36.69864 | 144.76349 | 21251 ft | 402 kts | 220° |
| 2026-04-24 11:55 | -36.72011 | 144.74130 | 20745 ft | 400 kts | 220° |
| 2026-04-24 11:55 | -36.74148 | 144.71920 | 20236 ft | 398 kts | 220° |
| 2026-04-24 11:56 | -36.76277 | 144.69723 | 19726 ft | 397 kts | 219° |
| 2026-04-24 11:56 | -36.78597 | 144.67859 | 19214 ft | 397 kts | 207° |
| 2026-04-24 11:56 | -36.81182 | 144.66666 | 18676 ft | 397 kts | 194° |
| 2026-04-24 11:56 | -36.83915 | 144.66204 | 18103 ft | 396 kts | 181° |
| 2026-04-24 11:57 | -36.86648 | 144.66476 | 17555 ft | 394 kts | 171° |
| 2026-04-24 11:57 | -36.89301 | 144.67060 | 17019 ft | 391 kts | 170° |
| 2026-04-24 11:57 | -36.91973 | 144.67650 | 16457 ft | 389 kts | 170° |
| 2026-04-24 11:57 | -36.94631 | 144.68241 | 15901 ft | 386 kts | 170° |
| 2026-04-24 11:58 | -36.97269 | 144.68828 | 15339 ft | 384 kts | 170° |
| 2026-04-24 11:58 | -36.99895 | 144.69409 | 14770 ft | 382 kts | 170° |
| 2026-04-24 11:58 | -37.02509 | 144.69985 | 14211 ft | 380 kts | 170° |
| 2026-04-24 11:58 | -37.05112 | 144.70559 | 13527 ft | 380 kts | 170° |
| 2026-04-24 11:59 | -37.07694 | 144.71129 | 13041 ft | 374 kts | 170° |
| 2026-04-24 11:59 | -37.10250 | 144.71696 | 12483 ft | 372 kts | 170° |
| 2026-04-24 11:59 | -37.12788 | 144.72260 | 11926 ft | 369 kts | 170° |
| 2026-04-24 11:59 | -37.15314 | 144.72820 | 11371 ft | 368 kts | 170° |
| 2026-04-24 12:00 | -37.17815 | 144.73383 | 11017 ft | 360 kts | 169° |
| 2026-04-24 12:00 | -37.20213 | 144.73983 | 10889 ft | 340 kts | 168° |
| 2026-04-24 12:00 | -37.21737 | 144.74391 | 10801 ft | 324 kts | 168° |
| 2026-04-24 12:00 | -37.24586 | 144.75174 | 10212 ft | 311 kts | 168° |
| 2026-04-24 12:01 | -37.25983 | 144.75559 | 9984 ft | 308 kts | 168° |
| 2026-04-24 12:01 | -37.28091 | 144.76138 | 9834 ft | 305 kts | 168° |
| 2026-04-24 12:01 | -37.30842 | 144.76888 | 9465 ft | 305 kts | 168° |
| 2026-04-24 12:01 | -37.32220 | 144.77260 | 9199 ft | 306 kts | 168° |
| 2026-04-24 12:02 | -37.34305 | 144.77785 | 8825 ft | 305 kts | 171° |
| 2026-04-24 12:02 | -37.36389 | 144.78193 | 8606 ft | 300 kts | 173° |
| 2026-04-24 12:02 | -37.38458 | 144.78539 | 8408 ft | 299 kts | 173° |
| 2026-04-24 12:02 | -37.40513 | 144.78870 | 8184 ft | 297 kts | 173° |
| 2026-04-24 12:03 | -37.42563 | 144.79205 | 7956 ft | 297 kts | 173° |
| 2026-04-24 12:03 | -37.44606 | 144.79530 | 7727 ft | 295 kts | 176° |
| 2026-04-24 12:03 | -37.46638 | 144.79416 | 7501 ft | 291 kts | 192° |
| 2026-04-24 12:03 | -37.48567 | 144.78705 | 7277 ft | 289 kts | 202° |
| 2026-04-24 12:04 | -37.50440 | 144.77808 | 7054 ft | 287 kts | 203° |
| 2026-04-24 12:04 | -37.52312 | 144.76919 | 6834 ft | 287 kts | 202° |
| 2026-04-24 12:04 | -37.54166 | 144.76042 | 6601 ft | 282 kts | 202° |
| 2026-04-24 12:04 | -37.55989 | 144.75183 | 6383 ft | 277 kts | 202° |
| 2026-04-24 12:05 | -37.57791 | 144.74337 | 6170 ft | 277 kts | 202° |
| 2026-04-24 12:05 | -37.59656 | 144.73780 | 5953 ft | 281 kts | 188° |
| 2026-04-24 12:05 | -37.61605 | 144.73633 | 5739 ft | 280 kts | 185° |
| 2026-04-24 12:05 | -37.63550 | 144.73500 | 5526 ft | 280 kts | 186° |
| 2026-04-24 12:06 | -37.65479 | 144.73363 | 5312 ft | 275 kts | 186° |
| 2026-04-24 12:06 | -37.67367 | 144.73227 | 5091 ft | 269 kts | 186° |
| 2026-04-24 12:06 | -37.69219 | 144.73095 | 4889 ft | 265 kts | 186° |
| 2026-04-24 12:06 | -37.71048 | 144.72971 | 4735 ft | 262 kts | 184° |
| 2026-04-24 12:07 | -37.72863 | 144.72910 | 4632 ft | 261 kts | 183° |
| 2026-04-24 12:07 | -37.74678 | 144.72887 | 4517 ft | 261 kts | 182° |
| 2026-04-24 12:07 | -37.76497 | 144.72873 | 4349 ft | 261 kts | 182° |
| 2026-04-24 12:07 | -37.78315 | 144.72856 | 4139 ft | 262 kts | 182° |
| 2026-04-24 12:08 | -37.80137 | 144.73010 | 3939 ft | 264 kts | 166° |
| 2026-04-24 12:08 | -37.81806 | 144.73923 | 3734 ft | 259 kts | 143° |
| 2026-04-24 12:08 | -37.83060 | 144.75456 | 3534 ft | 245 kts | 121° |
| 2026-04-24 12:08 | -37.83841 | 144.77294 | 3341 ft | 230 kts | 105° |
| 2026-04-24 12:09 | -37.84195 | 144.79206 | 3169 ft | 217 kts | 88° |
| 2026-04-24 12:09 | -37.84129 | 144.81047 | 3004 ft | 203 kts | 74° |
| 2026-04-24 12:09 | -37.83924 | 144.82774 | 2880 ft | 195 kts | 74° |
| 2026-04-24 12:09 | -37.83725 | 144.84440 | 2703 ft | 188 kts | 72° |
| 2026-04-24 12:10 | -37.83176 | 144.85837 | 2558 ft | 172 kts | 38° |
| 2026-04-24 12:10 | -37.82161 | 144.86516 | 2433 ft | 164 kts | 7° |
| 2026-04-24 12:10 | -37.81034 | 144.86440 | 2307 ft | 163 kts | 352° |
| 2026-04-24 12:11 | -37.78808 | 144.86017 | 2061 ft | 163 kts | 352° |
| 2026-04-24 12:11 | -37.77685 | 144.85806 | 1934 ft | 163 kts | 352° |
| 2026-04-24 12:11 | -37.76594 | 144.85602 | 1807 ft | 151 kts | 352° |
| 2026-04-24 12:11 | -37.75609 | 144.85419 | 1701 ft | 136 kts | 352° |
| 2026-04-24 12:12 | -37.74696 | 144.85250 | 1565 ft | 130 kts | 353° |
| 2026-04-24 12:12 | -37.73805 | 144.85086 | 1387 ft | 131 kts | 353° |
| 2026-04-24 12:12 | -37.72894 | 144.84915 | 1265 ft | 135 kts | 352° |
| 2026-04-24 12:12 | -37.71958 | 144.84714 | 1097 ft | 137 kts | 351° |
| 2026-04-24 12:13 | -37.71011 | 144.84547 | 895 ft | 137 kts | 353° |
| 2026-04-24 12:13 | -37.70070 | 144.84370 | 705 ft | 137 kts | 353° |
| 2026-04-24 12:13 | -37.69126 | 144.84198 | 516 ft | 137 kts | 353° |
| 2026-04-24 12:13 | -37.68184 | 144.84021 | 358 ft | 135 kts | 353° |
| 2026-04-24 12:14 | -37.67433 | 144.83885 | 371 ft | 70 kts | 351° |
| 2026-04-24 12:14 | -37.67162 | 144.83837 | 381 ft | 30 kts | 352° |
| 2026-04-24 12:14 | -37.66968 | 144.83854 | 387 ft | 22 kts | 16° |
| 2026-04-24 12:14 | -37.66865 | 144.83902 | 391 ft | 7 kts | 21° |
| 2026-04-24 12:15 | -37.66811 | 144.83929 | 392 ft | 11 kts | 22° |
| 2026-04-24 12:15 | -37.66733 | 144.83997 | 389 ft | 16 kts | 59° |
| 2026-04-24 12:15 | -37.66734 | 144.84136 | 389 ft | 16 kts | 118° |
| 2026-04-24 12:15 | -37.66826 | 144.84199 | 391 ft | 17 kts | 172° |
| 2026-04-24 12:16 | -37.66941 | 144.84219 | 387 ft | 17 kts | 172° |
| 2026-04-24 12:16 | -37.67065 | 144.84242 | 384 ft | 17 kts | 171° |
| 2026-04-24 12:16 | -37.67191 | 144.84265 | 382 ft | 20 kts | 171° |
| 2026-04-24 12:16 | -37.67340 | 144.84294 | 379 ft | 22 kts | 171° |
| 2026-04-24 12:17 | -37.67442 | 144.84312 | 377 ft | 13 kts | 171° |
| 2026-04-24 12:17 | -37.67544 | 144.84332 | 374 ft | 17 kts | 172° |
| 2026-04-24 12:17 | -37.67655 | 144.84353 | 370 ft | 16 kts | 171° |
| 2026-04-24 12:17 | -37.67743 | 144.84370 | 367 ft | 11 kts | 171° |
| 2026-04-24 12:18 | -37.67830 | 144.84397 | 363 ft | 12 kts | 139° |
| 2026-04-24 12:18 | -37.67829 | 144.84502 | 364 ft | 13 kts | 80° |
| 2026-04-24 12:18 | -37.67805 | 144.84592 | 368 ft | 8 kts | 36° |
| 2026-04-24 12:18 | -37.67758 | 144.84617 | 370 ft | 7 kts | 34° |
| 2026-04-24 12:19 | -37.67741 | 144.84670 | 371 ft | 7 kts | 83° |
| 2026-04-24 12:19 | -37.67734 | 144.84739 | 372 ft | 9 kts | 83° |
| 2026-04-24 12:19 | -37.67711 | 144.84768 | 373 ft | 4 kts | 2° |
| 2026-04-24 12:19 | -37.67681 | 144.84763 | 374 ft | 4 kts | 351° |
| 2026-04-24 12:20 | -37.67649 | 144.84757 | 375 ft | 5 kts | 351° |
| 2026-04-24 12:20 | -37.67632 | 144.84753 | 376 ft | 2 kts | 351° |
| 2026-04-24 12:20 | -37.67626 | 144.84752 | 376 ft | 0 kts | 352° |
| 2026-04-24 12:20 | -37.67625 | 144.84752 | 376 ft | 0 kts | 352° |